BBC Congo — V2EL3 — position and weather

sailwx.info

Track history (hours):
 
Tides and Currents Weather Stations Pressure Air Temp Water Temp Dewpoint Dewpoint Depression Visibility Wind Speed Wind Dir Waves Ship Positions

BBC Congo

Last reported at 2017-Feb-08 19:33 UTC. Time now 2017-Feb-23 11:57 UTC.
Position N 36°27' E 014°37'.
Warning: this ship's position is 14 days out of date.

Length 144 m; draft 8.2 m.

Type: Cargo ship. MMSI: 305466000.

Date/timePositionNaut miles runAvg speedWind from/ knotsBaromVisibWave heightAir tempDewpointWater temp
2017-Feb-08 19:33N 36°27' E 014°37'1514.8
2017-Feb-08 18:33N 36°32' E 014°20'1515.0
2017-Feb-08 17:33N 36°37' E 014°02'1615.0
2017-Feb-08 16:27N 36°42' E 013°43'  
2017-Feb-06 05:29N 36°03' W 004°44'1617.3
2017-Feb-06 04:33N 36°00' W 005°04'1818.5
2017-Feb-06 03:33N 35°57' W 005°26'25313.3
2017-Feb-05 08:33N 38°08' W 009°58'1515.1
2017-Feb-05 07:33N 38°23' W 010°02'1515.2
2017-Feb-05 06:33N 38°38' W 010°06'1515.2
2017-Feb-05 05:33N 38°53' W 010°07'1515.1
2017-Feb-05 04:33N 39°08' W 010°04'  
2017-Feb-01 17:15N 43°44' W 006°05'1114.9
2017-Feb-01 16:33N 43°42' W 005°51'1111.4
2017-Feb-01 15:34N 43°34' W 005°40'1 0.8
2017-Feb-01 14:23N 43°33' W 005°41'0 0.0
2017-Feb-01 12:29N 43°33' W 005°41'0 0.0
2017-Feb-01 11:29N 43°33' W 005°41'0 0.0
2017-Feb-01 10:29N 43°33' W 005°41'0 0.0
2017-Feb-01 09:17N 43°33' W 005°41'0 0.0
2017-Feb-01 07:11N 43°33' W 005°41'0 0.0
2017-Feb-01 06:29N 43°33' W 005°41'0 0.0
2017-Feb-01 05:23N 43°33' W 005°41'0 0.0
2017-Feb-01 04:29N 43°33' W 005°41'0 0.0
2017-Feb-01 03:23N 43°33' W 005°41'0 0.0
2017-Feb-01 02:29N 43°33' W 005°41'0 0.0
2017-Feb-01 01:29N 43°33' W 005°41'0 0.0
2017-Jan-31 23:29N 43°33' W 005°41'0 0.0
2017-Jan-31 22:23N 43°33' W 005°41'0 0.0
2017-Jan-31 20:32N 43°33' W 005°41'8 6.9
2017-Jan-31 19:26N 43°41' W 005°40'2613.9
2017-Jan-31 17:32N 44°07' W 005°42'30512.2
2017-Jan-30 16:30N 49°11' W 005°03'7412.4
2017-Jan-30 10:33N 49°48' W 003°25'1111.3
2017-Jan-30 09:32N 49°53' W 003°09'1010.5
2017-Jan-30 08:33N 49°58' W 002°55'1010.2
2017-Jan-30 07:31N 50°01' W 002°40'1110.8
2017-Jan-30 06:31N 50°05' W 002°24'1312.3
2017-Jan-30 05:26N 50°08' W 002°04'1214.1
2017-Jan-30 04:34N 50°11' W 001°45'1515.0
2017-Jan-30 03:33N 50°15' W 001°22'4113.5
2017-Jan-30 00:34N 50°26' W 000°21'1010.1
2017-Jan-29 23:34N 50°28' W 000°05'9 9.0
2017-Jan-29 22:31N 50°31' E 000°09'8 8.2
2017-Jan-29 21:34N 50°33' E 000°21'8 8.4
2017-Jan-29 20:34N 50°36' E 000°33'1010.2
2017-Jan-29 19:34N 50°42' E 000°47'  
Track history (hours):
 
Tides and Currents Weather Stations Pressure Air Temp Water Temp Dewpoint Dewpoint Depression Visibility Wind Speed Wind Dir Waves Ship Positions

BBC Congo

Last reported at 2017-Feb-08 19:33 UTC. Time now 2017-Feb-23 11:57 UTC.
Position N 36°27' E 014°37'.
Warning: this ship's position is 14 days out of date.

Length 144 m; draft 8.2 m.

Type: Cargo ship. MMSI: 305466000.

Date/timePositionNaut miles runAvg speedWind from/ knotsBaromVisibWave heightAir tempDewpointWater temp
2017-Feb-08 19:33N 36°27' E 014°37'1514.8
2017-Feb-08 18:33N 36°32' E 014°20'1515.0
2017-Feb-08 17:33N 36°37' E 014°02'1615.0
2017-Feb-08 16:27N 36°42' E 013°43'  
2017-Feb-06 05:29N 36°03' W 004°44'1617.3
2017-Feb-06 04:33N 36°00' W 005°04'1818.5
2017-Feb-06 03:33N 35°57' W 005°26'25313.3
2017-Feb-05 08:33N 38°08' W 009°58'1515.1
2017-Feb-05 07:33N 38°23' W 010°02'1515.2
2017-Feb-05 06:33N 38°38' W 010°06'1515.2
2017-Feb-05 05:33N 38°53' W 010°07'1515.1
2017-Feb-05 04:33N 39°08' W 010°04'  
2017-Feb-01 17:15N 43°44' W 006°05'1114.9
2017-Feb-01 16:33N 43°42' W 005°51'1111.4
2017-Feb-01 15:34N 43°34' W 005°40'1 0.8
2017-Feb-01 14:23N 43°33' W 005°41'0 0.0
2017-Feb-01 12:29N 43°33' W 005°41'0 0.0
2017-Feb-01 11:29N 43°33' W 005°41'0 0.0
2017-Feb-01 10:29N 43°33' W 005°41'0 0.0
2017-Feb-01 09:17N 43°33' W 005°41'0 0.0
2017-Feb-01 07:11N 43°33' W 005°41'0 0.0
2017-Feb-01 06:29N 43°33' W 005°41'0 0.0
2017-Feb-01 05:23N 43°33' W 005°41'0 0.0
2017-Feb-01 04:29N 43°33' W 005°41'0 0.0
2017-Feb-01 03:23N 43°33' W 005°41'0 0.0
2017-Feb-01 02:29N 43°33' W 005°41'0 0.0
2017-Feb-01 01:29N 43°33' W 005°41'0 0.0
2017-Jan-31 23:29N 43°33' W 005°41'0 0.0
2017-Jan-31 22:23N 43°33' W 005°41'0 0.0
2017-Jan-31 20:32N 43°33' W 005°41'8 6.9
2017-Jan-31 19:26N 43°41' W 005°40'2613.9
2017-Jan-31 17:32N 44°07' W 005°42'30512.2
2017-Jan-30 16:30N 49°11' W 005°03'7412.4
2017-Jan-30 10:33N 49°48' W 003°25'1111.3
2017-Jan-30 09:32N 49°53' W 003°09'1010.5
2017-Jan-30 08:33N 49°58' W 002°55'1010.2
2017-Jan-30 07:31N 50°01' W 002°40'1110.8
2017-Jan-30 06:31N 50°05' W 002°24'1312.3
2017-Jan-30 05:26N 50°08' W 002°04'1214.1
2017-Jan-30 04:34N 50°11' W 001°45'1515.0
2017-Jan-30 03:33N 50°15' W 001°22'4113.5
2017-Jan-30 00:34N 50°26' W 000°21'1010.1
2017-Jan-29 23:34N 50°28' W 000°05'9 9.0
2017-Jan-29 22:31N 50°31' E 000°09'8 8.2
2017-Jan-29 21:34N 50°33' E 000°21'8 8.4
2017-Jan-29 20:34N 50°36' E 000°33'1010.2
2017-Jan-29 19:34N 50°42' E 000°47'  

Dump ship's entire track history